createdAt,value
2018-05-26T00:00:25.537Z,1002.59
2018-05-26T00:01:25.532Z,1002.63
2018-05-26T00:02:25.526Z,1002.60
2018-05-26T00:03:25.522Z,1002.61
2018-05-26T00:04:25.521Z,1002.59
2018-05-26T00:05:25.513Z,1002.66
2018-05-26T00:06:25.511Z,1002.62
2018-05-26T00:07:25.503Z,1002.63
2018-05-26T00:08:25.503Z,1002.70
2018-05-26T00:09:25.495Z,1002.67
2018-05-26T00:10:25.488Z,1002.71
2018-05-26T00:11:25.485Z,1002.71
2018-05-26T00:12:25.481Z,1002.72
2018-05-26T00:13:25.475Z,1002.74
2018-05-26T00:14:25.470Z,1002.72
2018-05-26T00:15:25.465Z,1002.74
2018-05-26T00:16:25.461Z,1002.74
2018-05-26T00:17:25.458Z,1002.73
2018-05-26T00:18:25.451Z,1002.76
2018-05-26T00:19:25.452Z,1002.73
2018-05-26T00:20:25.443Z,1002.74
2018-05-26T00:21:25.437Z,1002.75
2018-05-26T00:22:25.433Z,1002.75
2018-05-26T00:23:25.428Z,1002.72
2018-05-26T00:24:25.441Z,1002.76
2018-05-26T00:25:25.419Z,1002.75
2018-05-26T00:26:25.413Z,1002.74
2018-05-26T00:27:25.409Z,1002.72
2018-05-26T00:28:25.408Z,1002.76
2018-05-26T00:29:25.400Z,1002.76
2018-05-26T00:30:25.394Z,1002.77
2018-05-26T00:31:25.393Z,1002.77
2018-05-26T00:32:25.387Z,1002.76
2018-05-26T00:33:25.380Z,1002.72
2018-05-26T00:34:25.375Z,1002.73
2018-05-26T00:35:25.370Z,1002.73
2018-05-26T00:36:25.366Z,1002.74
2018-05-26T00:37:25.366Z,1002.74
2018-05-26T00:38:25.361Z,1002.77
2018-05-26T00:39:25.351Z,1002.76
2018-05-26T00:40:25.346Z,1002.77
2018-05-26T00:41:25.345Z,1002.80
2018-05-26T00:42:25.339Z,1002.81
2018-05-26T00:43:25.331Z,1002.82
2018-05-26T00:44:25.330Z,1002.77
2018-05-26T00:45:25.323Z,1002.82
2018-05-26T00:46:25.316Z,1002.78
2018-05-26T00:47:25.312Z,1002.79
2018-05-26T00:48:25.312Z,1002.79
2018-05-26T00:49:25.302Z,1002.77
2018-05-26T00:50:25.298Z,1002.76
2018-05-26T00:51:25.300Z,1002.75
2018-05-26T00:52:25.288Z,1002.72
2018-05-26T00:53:25.282Z,1002.69
2018-05-26T00:54:25.304Z,1002.73
2018-05-26T00:55:25.273Z,1002.75
2018-05-26T00:56:25.267Z,1002.75
2018-05-26T00:57:25.262Z,1002.77
2018-05-26T00:58:25.259Z,1002.77
2018-05-26T00:59:25.279Z,1002.74
2018-05-26T01:00:25.246Z,1002.75
2018-05-26T01:01:25.242Z,1002.75
2018-05-26T01:02:25.236Z,1002.73
2018-05-26T01:03:25.231Z,1002.72
2018-05-26T01:04:25.227Z,1002.70
2018-05-26T01:05:25.221Z,1002.69
2018-05-26T01:06:25.215Z,1002.67
2018-05-26T01:07:25.213Z,1002.64
2018-05-26T01:08:25.206Z,1002.63
2018-05-26T01:09:25.231Z,1002.64
2018-05-26T01:10:25.195Z,1002.59
2018-05-26T01:11:25.190Z,1002.63
2018-05-26T01:12:25.185Z,1002.64
2018-05-26T01:13:25.180Z,1002.63
2018-05-26T01:14:25.175Z,1002.63
2018-05-26T01:15:25.170Z,1002.64
2018-05-26T01:16:25.164Z,1002.61
2018-05-26T01:17:25.160Z,1002.62
2018-05-26T01:18:25.153Z,1002.65
2018-05-26T01:19:25.195Z,1002.59
2018-05-26T01:20:25.148Z,1002.57
2018-05-26T01:21:25.138Z,1002.57
2018-05-26T01:22:25.334Z,1002.55
2018-05-26T01:23:25.131Z,1002.56
2018-05-26T01:24:25.125Z,1002.55
2018-05-26T01:25:25.118Z,1002.53
2018-05-26T01:26:25.112Z,1002.50
2018-05-26T01:27:25.107Z,1002.52
2018-05-26T01:28:25.102Z,1002.50
2018-05-26T01:29:25.114Z,1002.52
2018-05-26T01:30:25.091Z,1002.55
2018-05-26T01:31:25.086Z,1002.55
2018-05-26T01:32:25.081Z,1002.61
2018-05-26T01:33:25.076Z,1002.59
2018-05-26T01:34:25.071Z,1002.62
2018-05-26T01:35:25.065Z,1002.55
2018-05-26T01:36:25.061Z,1002.55
2018-05-26T01:37:25.055Z,1002.56
2018-05-26T01:38:25.050Z,1002.57
2018-05-26T01:39:25.050Z,1002.53
2018-05-26T01:40:25.040Z,1002.51
2018-05-26T01:41:25.035Z,1002.55
2018-05-26T01:42:25.029Z,1002.49
2018-05-26T01:43:25.024Z,1002.55
2018-05-26T01:44:25.020Z,1002.56
2018-05-26T01:45:25.014Z,1002.56
2018-05-26T01:46:25.008Z,1002.57
2018-05-26T01:47:25.004Z,1002.58
2018-05-26T01:48:25.000Z,1002.59
2018-05-26T01:49:24.994Z,1002.58
2018-05-26T01:50:24.988Z,1002.55
2018-05-26T01:51:24.983Z,1002.57
2018-05-26T01:52:24.977Z,1002.56
2018-05-26T01:53:24.976Z,1002.53
2018-05-26T01:54:24.966Z,1002.51
2018-05-26T01:55:24.965Z,1002.49
2018-05-26T01:56:24.957Z,1002.54
2018-05-26T01:57:24.954Z,1002.48
2018-05-26T01:58:24.945Z,1002.49
2018-05-26T01:59:25.147Z,1002.47
2018-05-26T02:00:24.935Z,1002.49
2018-05-26T02:01:24.930Z,1002.49
2018-05-26T02:02:24.924Z,1002.46
2018-05-26T02:03:24.924Z,1002.45
2018-05-26T02:04:24.913Z,1002.47
2018-05-26T02:05:24.908Z,1002.50
2018-05-26T02:06:24.903Z,1002.52
2018-05-26T02:07:24.897Z,1002.54
2018-05-26T02:08:24.892Z,1002.52
2018-05-26T02:09:24.887Z,1002.49
2018-05-26T02:10:24.885Z,1002.47
2018-05-26T02:11:24.876Z,1002.47
2018-05-26T02:12:24.870Z,1002.42
2018-05-26T02:13:24.865Z,1002.45
2018-05-26T02:14:24.859Z,1002.45
2018-05-26T02:15:24.854Z,1002.46
2018-05-26T02:16:24.848Z,1002.44
2018-05-26T02:17:24.843Z,1002.46
2018-05-26T02:18:24.837Z,1002.43
2018-05-26T02:19:24.832Z,1002.44
2018-05-26T02:20:24.826Z,1002.41
2018-05-26T02:21:24.821Z,1002.39
2018-05-26T02:22:24.814Z,1002.38
2018-05-26T02:23:24.813Z,1002.37
2018-05-26T02:24:24.858Z,1002.38
2018-05-26T02:25:24.801Z,1002.40
2018-05-26T02:26:24.794Z,1002.40
2018-05-26T02:27:24.790Z,1002.36
2018-05-26T02:28:24.788Z,1002.35
2018-05-26T02:29:24.777Z,1002.32
2018-05-26T02:30:24.770Z,1002.33
2018-05-26T02:31:24.771Z,1002.32
2018-05-26T02:32:24.759Z,1002.33
2018-05-26T02:33:24.755Z,1002.31
2018-05-26T02:34:24.753Z,1002.35
2018-05-26T02:35:24.743Z,1002.33
2018-05-26T02:36:24.738Z,1002.33
2018-05-26T02:37:24.732Z,1002.34
2018-05-26T02:38:24.729Z,1002.32
2018-05-26T02:39:24.720Z,1002.35
2018-05-26T02:40:24.715Z,1002.31
2018-05-26T02:41:24.709Z,1002.31
2018-05-26T02:42:24.704Z,1002.35
2018-05-26T02:43:24.697Z,1002.37
2018-05-26T02:44:24.691Z,1002.38
2018-05-26T02:45:24.891Z,1002.36
2018-05-26T02:46:24.679Z,1002.40
2018-05-26T02:47:24.674Z,1002.39
2018-05-26T02:48:24.668Z,1002.41
2018-05-26T02:49:24.663Z,1002.38
2018-05-26T02:50:24.657Z,1002.40
2018-05-26T02:51:24.650Z,1002.42
2018-05-26T02:52:24.645Z,1002.40
2018-05-26T02:53:24.643Z,1002.39
2018-05-26T02:54:24.634Z,1002.35
2018-05-26T02:55:24.628Z,1002.35
2018-05-26T02:56:24.623Z,1002.36
2018-05-26T02:57:24.617Z,1002.38
2018-05-26T02:58:24.616Z,1002.37
2018-05-26T02:59:24.605Z,1002.40
2018-05-26T03:00:24.599Z,1002.42
2018-05-26T03:01:24.594Z,1002.43
2018-05-26T03:02:24.600Z,1002.41
2018-05-26T03:03:24.583Z,1002.43
2018-05-26T03:04:24.582Z,1002.47
2018-05-26T03:05:24.571Z,1002.47
2018-05-26T03:06:24.565Z,1002.45
2018-05-26T03:07:24.560Z,1002.50
2018-05-26T03:08:24.556Z,1002.51
2018-05-26T03:09:24.549Z,1002.52
2018-05-26T03:10:24.543Z,1002.47
2018-05-26T03:11:24.538Z,1002.51
2018-05-26T03:12:24.532Z,1002.51
2018-05-26T03:13:24.526Z,1002.49
2018-05-26T03:14:24.525Z,1002.50
2018-05-26T03:15:24.515Z,1002.53
2018-05-26T03:16:24.510Z,1002.49
2018-05-26T03:17:24.706Z,1002.53
2018-05-26T03:18:24.497Z,1002.52
2018-05-26T03:19:24.492Z,1002.53
2018-05-26T03:20:24.486Z,1002.57
2018-05-26T03:21:24.481Z,1002.59
2018-05-26T03:22:24.474Z,1002.58
2018-05-26T03:23:24.468Z,1002.60
2018-05-26T03:24:24.468Z,1002.58
2018-05-26T03:25:24.457Z,1002.58
2018-05-26T03:26:24.451Z,1002.59
2018-05-26T03:27:24.451Z,1002.61
2018-05-26T03:28:24.448Z,1002.58
2018-05-26T03:29:24.435Z,1002.54
2018-05-26T03:30:24.429Z,1002.58
2018-05-26T03:31:24.422Z,1002.55
2018-05-26T03:32:24.416Z,1002.59
2018-05-26T03:33:24.614Z,1002.57
2018-05-26T03:34:24.408Z,1002.56
2018-05-26T03:35:24.400Z,1002.52
2018-05-26T03:36:24.397Z,1002.55
2018-05-26T03:37:24.392Z,1002.57
2018-05-26T03:38:24.380Z,1002.58
2018-05-26T03:39:24.374Z,1002.59
2018-05-26T03:40:24.370Z,1002.52
2018-05-26T03:41:24.363Z,1002.57
2018-05-26T03:42:24.359Z,1002.54
2018-05-26T03:43:24.356Z,1002.56
2018-05-26T03:44:24.345Z,1002.52
2018-05-26T03:45:24.343Z,1002.55
2018-05-26T03:46:24.333Z,1002.58
2018-05-26T03:47:24.327Z,1002.55
2018-05-26T03:48:24.326Z,1002.59
2018-05-26T03:49:24.320Z,1002.57
2018-05-26T03:50:24.310Z,1002.59
2018-05-26T03:51:24.304Z,1002.61
2018-05-26T03:52:24.301Z,1002.61
2018-05-26T03:53:24.292Z,1002.61
2018-05-26T03:54:24.285Z,1002.63
2018-05-26T03:55:24.283Z,1002.66
2018-05-26T03:56:24.275Z,1002.67
2018-05-26T03:57:24.269Z,1002.68
2018-05-26T03:58:24.263Z,1002.71
2018-05-26T03:59:24.261Z,1002.72
2018-05-26T04:00:24.251Z,1002.74
2018-05-26T04:01:24.249Z,1002.76
2018-05-26T04:02:24.245Z,1002.77
2018-05-26T04:03:24.237Z,1002.78
2018-05-26T04:04:24.231Z,1002.80
2018-05-26T04:05:24.222Z,1002.82
2018-05-26T04:06:24.219Z,1002.84
2018-05-26T04:07:24.210Z,1002.86
2018-05-26T04:08:24.407Z,1002.84
2018-05-26T04:09:24.199Z,1002.83
2018-05-26T04:10:24.194Z,1002.82
2018-05-26T04:11:24.199Z,1002.86
2018-05-26T04:12:24.182Z,1002.84
2018-05-26T04:13:24.176Z,1002.84
2018-05-26T04:14:24.172Z,1002.82
2018-05-26T04:15:24.164Z,1002.87
2018-05-26T04:16:24.161Z,1002.83
2018-05-26T04:17:24.153Z,1002.87
2018-05-26T04:18:24.150Z,1002.86
2018-05-26T04:19:24.141Z,1002.88
2018-05-26T04:20:24.135Z,1002.86
2018-05-26T04:21:24.130Z,1002.90
2018-05-26T04:22:24.124Z,1002.91
2018-05-26T04:23:24.118Z,1002.91
2018-05-26T04:24:24.119Z,1002.94
2018-05-26T04:25:24.112Z,1002.96
2018-05-26T04:26:24.101Z,1002.96
2018-05-26T04:27:24.099Z,1002.99
2018-05-26T04:28:24.090Z,1002.98
2018-05-26T04:29:24.085Z,1002.96
2018-05-26T04:30:24.085Z,1002.97
2018-05-26T04:31:24.081Z,1002.99
2018-05-26T04:32:24.076Z,1002.97
2018-05-26T04:33:24.063Z,1002.97
2018-05-26T04:34:24.057Z,1002.97
2018-05-26T04:35:24.109Z,1003.00
2018-05-26T04:36:24.048Z,1003.01
2018-05-26T04:37:24.042Z,1003.02
2018-05-26T04:38:24.047Z,1003.03
2018-05-26T04:39:24.031Z,1003.05
2018-05-26T04:40:24.026Z,1003.08
2018-05-26T04:41:24.026Z,1003.07
2018-05-26T04:42:24.024Z,1003.09
2018-05-26T04:43:24.010Z,1003.12
2018-05-26T04:44:24.005Z,1003.16
2018-05-26T04:45:24.005Z,1003.17
2018-05-26T04:46:23.998Z,1003.19
2018-05-26T04:47:23.996Z,1003.15
2018-05-26T04:48:23.987Z,1003.19
2018-05-26T04:49:23.984Z,1003.17
2018-05-26T04:50:23.975Z,1003.18
2018-05-26T04:51:23.969Z,1003.19
2018-05-26T04:52:23.970Z,1003.17
2018-05-26T04:53:23.961Z,1003.18
2018-05-26T04:54:23.957Z,1003.22
2018-05-26T04:55:23.950Z,1003.25
2018-05-26T04:56:23.946Z,1003.20
2018-05-26T04:57:23.941Z,1003.20
2018-05-26T04:58:23.935Z,1003.21
2018-05-26T04:59:23.936Z,1003.25
2018-05-26T05:00:23.929Z,1003.24
2018-05-26T05:01:24.124Z,1003.25
2018-05-26T05:02:23.919Z,1003.23
2018-05-26T05:03:23.918Z,1003.24
2018-05-26T05:04:23.914Z,1003.27
2018-05-26T05:05:23.903Z,1003.25
2018-05-26T05:06:23.898Z,1003.26
2018-05-26T05:07:23.896Z,1003.27
2018-05-26T05:08:23.889Z,1003.25
2018-05-26T05:09:23.884Z,1003.24
2018-05-26T05:10:23.879Z,1003.26
2018-05-26T05:11:23.879Z,1003.29
2018-05-26T05:12:23.874Z,1003.26
2018-05-26T05:13:23.867Z,1003.29
2018-05-26T05:14:23.862Z,1003.25
2018-05-26T05:15:23.863Z,1003.26
2018-05-26T05:16:23.853Z,1003.29
2018-05-26T05:17:23.857Z,1003.27
2018-05-26T05:18:23.848Z,1003.21
2018-05-26T05:19:23.840Z,1003.23
2018-05-26T05:20:23.839Z,1003.28
2018-05-26T05:21:24.038Z,1003.31
2018-05-26T05:22:23.837Z,1003.27
2018-05-26T05:23:23.827Z,1003.29
2018-05-26T05:24:23.821Z,1003.34
2018-05-26T05:25:23.816Z,1003.32
2018-05-26T05:26:23.811Z,1003.29
2018-05-26T05:27:23.807Z,1003.30
2018-05-26T05:28:23.807Z,1003.33
2018-05-26T05:30:23.799Z,1003.35
2018-05-26T05:31:23.794Z,1003.38
2018-05-26T05:32:23.792Z,1003.36
2018-05-26T05:33:23.789Z,1003.33
2018-05-26T05:34:23.784Z,1003.34
2018-05-26T05:35:23.777Z,1003.33
2018-05-26T05:36:23.774Z,1003.34
2018-05-26T05:37:23.772Z,1003.40
2018-05-26T05:38:23.765Z,1003.38
2018-05-26T05:39:23.762Z,1003.43
2018-05-26T05:40:23.761Z,1003.43
2018-05-26T05:41:23.756Z,1003.44
2018-05-26T05:42:23.756Z,1003.42
2018-05-26T05:43:23.748Z,1003.46
2018-05-26T05:44:23.749Z,1003.44
2018-05-26T05:45:23.747Z,1003.45
2018-05-26T05:46:23.737Z,1003.43
2018-05-26T05:47:23.739Z,1003.40
2018-05-26T05:48:23.731Z,1003.41
2018-05-26T05:49:23.727Z,1003.40
2018-05-26T05:50:23.723Z,1003.41
2018-05-26T05:51:23.721Z,1003.37
2018-05-26T05:52:23.722Z,1003.38
2018-05-26T05:53:23.715Z,1003.36
2018-05-26T05:54:23.711Z,1003.37
2018-05-26T05:55:23.708Z,1003.35
2018-05-26T05:56:23.752Z,1003.36
2018-05-26T05:57:23.702Z,1003.37
2018-05-26T05:58:23.698Z,1003.33
2018-05-26T05:59:23.695Z,1003.35
2018-05-26T06:00:23.693Z,1003.38
2018-05-26T06:01:23.691Z,1003.37
2018-05-26T06:02:23.690Z,1003.39
2018-05-26T06:03:23.684Z,1003.38
2018-05-26T06:04:23.892Z,1003.36
2018-05-26T06:05:23.679Z,1003.37
2018-05-26T06:06:23.878Z,1003.40
2018-05-26T06:07:23.674Z,1003.42
2018-05-26T06:08:23.671Z,1003.40
2018-05-26T06:09:23.673Z,1003.41
2018-05-26T06:10:23.666Z,1003.39
2018-05-26T06:11:23.671Z,1003.41
2018-05-26T06:12:23.662Z,1003.39
2018-05-26T06:13:23.660Z,1003.38
2018-05-26T06:14:23.658Z,1003.38
2018-05-26T06:15:23.664Z,1003.37
2018-05-26T06:16:23.658Z,1003.38
2018-05-26T06:17:23.652Z,1003.35
2018-05-26T06:18:23.649Z,1003.36
2018-05-26T06:19:23.649Z,1003.33
2018-05-26T06:20:23.646Z,1003.37
2018-05-26T06:21:23.652Z,1003.39
2018-05-26T06:22:23.651Z,1003.37
2018-05-26T06:23:23.640Z,1003.38
2018-05-26T06:24:23.640Z,1003.40
2018-05-26T06:25:23.638Z,1003.41
2018-05-26T06:26:23.849Z,1003.38
2018-05-26T06:27:23.635Z,1003.39
2018-05-26T06:28:23.634Z,1003.40
2018-05-26T06:29:23.637Z,1003.41
2018-05-26T06:30:23.630Z,1003.42
2018-05-26T06:31:23.833Z,1003.43
2018-05-26T06:32:23.630Z,1003.43
2018-05-26T06:33:23.629Z,1003.44
2018-05-26T06:34:23.625Z,1003.43
2018-05-26T06:35:23.624Z,1003.44
2018-05-26T06:36:23.624Z,1003.47
2018-05-26T06:37:23.622Z,1003.47
2018-05-26T06:38:23.626Z,1003.48
2018-05-26T06:39:23.626Z,1003.50
2018-05-26T06:40:23.618Z,1003.48
2018-05-26T06:41:23.618Z,1003.50
2018-05-26T06:42:23.625Z,1003.53
2018-05-26T06:43:23.616Z,1003.53
2018-05-26T06:44:23.615Z,1003.51
2018-05-26T06:45:23.622Z,1003.57
2018-05-26T06:46:23.618Z,1003.55
2018-05-26T06:47:23.614Z,1003.57
2018-05-26T06:48:23.617Z,1003.59
2018-05-26T06:49:23.614Z,1003.58
2018-05-26T06:50:23.618Z,1003.59
2018-05-26T06:51:23.646Z,1003.62
2018-05-26T06:52:23.618Z,1003.62
2018-05-26T06:53:23.609Z,1003.63
2018-05-26T06:55:23.608Z,1003.70
2018-05-26T06:56:23.606Z,1003.72
2018-05-26T06:57:23.605Z,1003.68
2018-05-26T06:58:23.603Z,1003.68
2018-05-26T06:59:23.608Z,1003.70
2018-05-26T07:00:23.648Z,1003.72
2018-05-26T07:01:23.606Z,1003.71
2018-05-26T07:02:23.604Z,1003.68
2018-05-26T07:03:23.604Z,1003.71
2018-05-26T07:04:23.606Z,1003.72
2018-05-26T07:05:23.608Z,1003.74
2018-05-26T07:06:23.604Z,1003.72
2018-05-26T07:07:23.605Z,1003.78
2018-05-26T07:08:23.610Z,1003.72
2018-05-26T07:09:23.609Z,1003.73
2018-05-26T07:10:23.610Z,1003.78
2018-05-26T07:11:23.613Z,1003.75
2018-05-26T07:12:23.616Z,1003.75
2018-05-26T07:13:23.625Z,1003.79
2018-05-26T07:14:23.625Z,1003.73
2018-05-26T07:15:23.630Z,1003.78
2018-05-26T07:16:23.631Z,1003.75
2018-05-26T07:17:23.839Z,1003.81
2018-05-26T07:18:23.641Z,1003.79
2018-05-26T07:19:23.647Z,1003.80
2018-05-26T07:20:23.659Z,1003.82
2018-05-26T07:21:23.659Z,1003.83
2018-05-26T07:22:23.670Z,1003.83
2018-05-26T07:23:23.878Z,1003.80
2018-05-26T07:24:23.682Z,1003.84
2018-05-26T07:25:23.689Z,1003.83
2018-05-26T07:26:23.902Z,1003.85
2018-05-26T07:28:23.712Z,1003.89
2018-05-26T07:29:23.721Z,1003.88
2018-05-26T07:30:23.731Z,1003.85
2018-05-26T07:31:23.738Z,1003.81
2018-05-26T07:32:23.747Z,1003.82
2018-05-26T07:33:23.760Z,1003.81
2018-05-26T07:34:23.765Z,1003.83
2018-05-26T07:35:23.776Z,1003.85
2018-05-26T07:36:23.790Z,1003.81
2018-05-26T07:37:23.799Z,1003.85
2018-05-26T07:38:23.809Z,1003.84
2018-05-26T07:39:23.819Z,1003.82
2018-05-26T07:40:23.826Z,1003.81
2018-05-26T07:41:23.838Z,1003.88
2018-05-26T07:42:23.848Z,1003.84
2018-05-26T07:43:23.859Z,1003.82
2018-05-26T07:44:23.870Z,1003.85
2018-05-26T07:45:23.883Z,1003.82
2018-05-26T07:46:23.892Z,1003.89
2018-05-26T07:47:23.904Z,1003.86
2018-05-26T07:48:23.920Z,1003.90
2018-05-26T07:49:23.931Z,1003.91
2018-05-26T07:50:23.938Z,1003.98
2018-05-26T07:51:23.954Z,1003.94
2018-05-26T07:52:23.965Z,1003.93
2018-05-26T07:53:24.177Z,1003.94
2018-05-26T07:54:23.986Z,1003.92
2018-05-26T07:55:24.061Z,1003.99
2018-05-26T07:56:24.011Z,1003.97
2018-05-26T07:57:24.023Z,1003.98
2018-05-26T07:58:24.065Z,1003.97
2018-05-26T07:59:24.048Z,1003.95
2018-05-26T08:00:24.074Z,1003.97
2018-05-26T08:01:24.078Z,1003.94
2018-05-26T08:02:24.086Z,1003.94
2018-05-26T08:03:24.100Z,1003.95
2018-05-26T08:04:24.114Z,1003.99
2018-05-26T08:05:24.369Z,1003.94
2018-05-26T08:06:24.145Z,1003.92
2018-05-26T08:07:24.155Z,1003.92
2018-05-26T08:08:24.167Z,1003.96
2018-05-26T08:09:24.184Z,1003.96
2018-05-26T08:10:24.196Z,1003.97
2018-05-26T08:11:24.211Z,1003.95
2018-05-26T08:12:24.223Z,1003.98
2018-05-26T08:13:24.235Z,1003.93
2018-05-26T08:14:24.255Z,1003.97
2018-05-26T08:15:24.264Z,1003.90
2018-05-26T08:16:24.275Z,1003.91
2018-05-26T08:17:24.307Z,1003.94
2018-05-26T08:18:24.301Z,1003.95
2018-05-26T08:19:24.315Z,1003.97
2018-05-26T08:20:24.327Z,1003.94
2018-05-26T08:21:24.340Z,1003.98
2018-05-26T08:22:24.356Z,1003.99
2018-05-26T08:23:24.565Z,1003.97
2018-05-26T08:24:24.375Z,1003.99
2018-05-26T08:25:24.388Z,1004.05
2018-05-26T08:26:24.398Z,1004.04
2018-05-26T08:27:24.413Z,1004.05
2018-05-26T08:28:24.421Z,1004.04
2018-05-26T08:29:24.433Z,1004.12
2018-05-26T08:30:24.443Z,1004.10
2018-05-26T08:31:24.456Z,1004.10
2018-05-26T08:32:24.466Z,1004.12
2018-05-26T08:33:24.478Z,1004.06
2018-05-26T08:34:24.489Z,1004.16
2018-05-26T08:35:24.503Z,1004.12
2018-05-26T08:36:24.510Z,1004.17
2018-05-26T08:37:24.523Z,1004.17
2018-05-26T08:38:24.532Z,1004.16
2018-05-26T08:39:24.554Z,1004.17
2018-05-26T08:40:24.555Z,1004.22
2018-05-26T08:41:24.567Z,1004.17
2018-05-26T08:42:24.578Z,1004.20
2018-05-26T08:43:24.797Z,1004.21
2018-05-26T08:44:24.606Z,1004.21
2018-05-26T08:45:24.614Z,1004.24
2018-05-26T08:46:24.628Z,1004.24
2018-05-26T08:47:24.635Z,1004.16
2018-05-26T08:48:24.651Z,1004.17
2018-05-26T08:49:24.658Z,1004.18
2018-05-26T08:50:24.670Z,1004.17
2018-05-26T08:51:24.682Z,1004.16
2018-05-26T08:52:24.694Z,1004.16
2018-05-26T08:53:24.710Z,1004.16
2018-05-26T08:54:24.925Z,1004.16
2018-05-26T08:55:24.733Z,1004.20
2018-05-26T08:56:24.743Z,1004.18
2018-05-26T08:57:24.961Z,1004.17
2018-05-26T08:58:24.769Z,1004.19
2018-05-26T08:59:24.779Z,1004.18
2018-05-26T09:00:24.794Z,1004.18
2018-05-26T09:01:24.809Z,1004.16
2018-05-26T09:02:24.837Z,1004.19
2018-05-26T09:03:24.830Z,1004.18
2018-05-26T09:04:24.844Z,1004.18
2018-05-26T09:05:24.859Z,1004.22
2018-05-26T09:06:25.103Z,1004.21
2018-05-26T09:07:24.884Z,1004.20
2018-05-26T09:08:24.898Z,1004.15
2018-05-26T09:09:24.911Z,1004.19
2018-05-26T09:10:24.924Z,1004.15
2018-05-26T09:11:24.938Z,1004.19
2018-05-26T09:12:24.994Z,1004.16
2018-05-26T09:13:24.970Z,1004.17
2018-05-26T09:14:24.979Z,1004.15
2018-05-26T09:15:25.201Z,1004.10
2018-05-26T09:16:25.008Z,1004.12
2018-05-26T09:17:25.023Z,1004.12
2018-05-26T09:18:25.036Z,1004.12
2018-05-26T09:19:25.051Z,1004.21
2018-05-26T09:20:25.068Z,1004.15
2018-05-26T09:21:25.090Z,1004.12
2018-05-26T09:22:25.093Z,1004.15
2018-05-26T09:23:25.113Z,1004.11
2018-05-26T09:24:25.125Z,1004.10
2018-05-26T09:25:25.262Z,1004.09
2018-05-26T09:26:25.152Z,1004.10
2018-05-26T09:27:25.168Z,1004.12
2018-05-26T09:28:25.183Z,1004.11
2018-05-26T09:29:25.199Z,1004.12
2018-05-26T09:30:25.217Z,1004.11
2018-05-26T09:31:25.254Z,1004.07
2018-05-26T09:32:25.245Z,1004.10
2018-05-26T09:33:25.264Z,1004.07
2018-05-26T09:34:25.312Z,1004.04
2018-05-26T09:35:25.292Z,1004.04
2018-05-26T09:36:25.309Z,1004.04
2018-05-26T09:37:25.325Z,1004.05
2018-05-26T09:38:25.340Z,1004.05
2018-05-26T09:39:25.361Z,1003.99
2018-05-26T09:40:25.387Z,1003.95
2018-05-26T09:41:25.397Z,1003.92
2018-05-26T09:42:25.407Z,1003.98
2018-05-26T09:43:25.425Z,1004.03
2018-05-26T09:44:25.440Z,1003.98
2018-05-26T09:45:25.456Z,1004.00
2018-05-26T09:46:25.480Z,1004.00
2018-05-26T09:47:25.493Z,1004.04
2018-05-26T09:48:25.505Z,1003.98
2018-05-26T09:49:25.743Z,1004.01
2018-05-26T09:50:25.547Z,1004.03
2018-05-26T09:51:25.561Z,1004.05
2018-05-26T09:52:25.571Z,1004.07
2018-05-26T09:53:25.590Z,1004.05
2018-05-26T09:54:25.608Z,1004.09
2018-05-26T09:55:25.621Z,1004.10
2018-05-26T09:56:25.655Z,1004.06
2018-05-26T09:58:25.668Z,1004.07
2018-05-26T09:59:25.686Z,1004.12
2018-05-26T10:00:25.702Z,1004.16
2018-05-26T10:01:25.926Z,1004.12
2018-05-26T10:02:25.734Z,1004.20
2018-05-26T10:03:25.753Z,1004.13
2018-05-26T10:04:25.767Z,1004.11
2018-05-26T10:05:25.790Z,1004.15
2018-05-26T10:06:25.800Z,1004.15
2018-05-26T10:07:25.814Z,1004.20
2018-05-26T10:08:25.832Z,1004.24
2018-05-26T10:09:25.849Z,1004.26
2018-05-26T10:10:25.862Z,1004.20
2018-05-26T10:11:25.879Z,1004.24
2018-05-26T10:12:25.894Z,1004.25
2018-05-26T10:13:25.964Z,1004.23
2018-05-26T10:14:25.925Z,1004.23
2018-05-26T10:15:25.942Z,1004.24
2018-05-26T10:16:25.958Z,1004.24
2018-05-26T10:17:25.974Z,1004.28
2018-05-26T10:18:25.989Z,1004.29
2018-05-26T10:19:26.009Z,1004.26
2018-05-26T10:20:26.021Z,1004.28
2018-05-26T10:21:26.037Z,1004.25
2018-05-26T10:22:26.057Z,1004.24
2018-05-26T10:23:26.069Z,1004.23
2018-05-26T10:24:26.088Z,1004.18
2018-05-26T10:25:26.306Z,1004.25
2018-05-26T10:26:26.124Z,1004.22
2018-05-26T10:27:26.134Z,1004.19
2018-05-26T10:28:26.151Z,1004.25
2018-05-26T10:29:26.168Z,1004.23
2018-05-26T10:30:26.183Z,1004.18
2018-05-26T10:31:26.199Z,1004.22
2018-05-26T10:32:26.221Z,1004.19
2018-05-26T10:33:26.241Z,1004.19
2018-05-26T10:34:26.252Z,1004.18
2018-05-26T10:35:26.314Z,1004.16
2018-05-26T10:36:26.280Z,1004.19
2018-05-26T10:37:26.296Z,1004.20
2018-05-26T10:38:26.312Z,1004.17
2018-05-26T10:39:26.328Z,1004.15
2018-05-26T10:40:26.352Z,1004.20
2018-05-26T10:41:26.364Z,1004.20
2018-05-26T10:42:26.384Z,1004.21
2018-05-26T10:43:26.393Z,1004.23
2018-05-26T10:44:26.410Z,1004.14
2018-05-26T10:45:26.432Z,1004.20
2018-05-26T10:46:26.441Z,1004.18
2018-05-26T10:47:26.460Z,1004.17
2018-05-26T10:48:26.675Z,1004.16
2018-05-26T10:49:26.490Z,1004.14
2018-05-26T10:50:26.504Z,1004.14
2018-05-26T10:51:26.519Z,1004.14
2018-05-26T10:52:26.535Z,1004.16
2018-05-26T10:53:26.550Z,1004.18
2018-05-26T10:54:26.570Z,1004.23
2018-05-26T10:55:26.580Z,1004.29
2018-05-26T10:56:26.597Z,1004.21
2018-05-26T10:57:26.610Z,1004.21
2018-05-26T10:58:26.626Z,1004.25
2018-05-26T10:59:26.640Z,1004.22
2018-05-26T11:00:26.654Z,1004.27
2018-05-26T11:01:26.671Z,1004.23
2018-05-26T11:02:26.686Z,1004.28
2018-05-26T11:03:26.700Z,1004.26
2018-05-26T11:04:26.791Z,1004.30
2018-05-26T11:05:26.732Z,1004.27
2018-05-26T11:06:26.747Z,1004.19
2018-05-26T11:07:26.764Z,1004.24
2018-05-26T11:08:26.779Z,1004.24
2018-05-26T11:09:26.796Z,1004.24
2018-05-26T11:10:26.814Z,1004.24
2018-05-26T11:11:26.830Z,1004.26
2018-05-26T11:12:26.846Z,1004.23
2018-05-26T11:13:26.911Z,1004.21
2018-05-26T11:14:26.948Z,1004.18
2018-05-26T11:15:26.897Z,1004.21
2018-05-26T11:16:27.184Z,1004.26
2018-05-26T11:17:26.935Z,1004.19
2018-05-26T11:18:26.954Z,1004.26
2018-05-26T11:19:27.012Z,1004.25
2018-05-26T11:20:26.983Z,1004.23
2018-05-26T11:21:27.003Z,1004.29
2018-05-26T11:22:27.017Z,1004.23
2018-05-26T11:23:27.038Z,1004.22
2018-05-26T11:24:27.152Z,1004.26
2018-05-26T11:25:27.105Z,1004.21
2018-05-26T11:26:27.091Z,1004.22
2018-05-26T11:27:27.110Z,1004.24
2018-05-26T11:28:27.124Z,1004.26
2018-05-26T11:29:27.144Z,1004.34
2018-05-26T11:30:27.176Z,1004.33
2018-05-26T11:31:27.188Z,1004.34
2018-05-26T11:32:27.401Z,1004.30
2018-05-26T11:33:27.221Z,1004.34
2018-05-26T11:34:27.233Z,1004.30
2018-05-26T11:35:27.256Z,1004.23
2018-05-26T11:36:27.274Z,1004.31
2018-05-26T11:37:27.306Z,1004.23
2018-05-26T11:38:27.304Z,1004.24
2018-05-26T11:39:27.329Z,1004.21
2018-05-26T11:40:27.340Z,1004.18
2018-05-26T11:41:27.362Z,1004.21
2018-05-26T11:42:27.380Z,1004.21
2018-05-26T11:43:27.396Z,1004.22
2018-05-26T11:44:27.410Z,1004.23
2018-05-26T11:45:27.465Z,1004.20
2018-05-26T11:46:27.445Z,1004.16
2018-05-26T11:47:27.468Z,1004.13
2018-05-26T11:48:27.483Z,1004.19
2018-05-26T11:49:27.501Z,1004.18
2018-05-26T11:50:27.515Z,1004.09
2018-05-26T11:51:27.533Z,1004.12
2018-05-26T11:52:27.553Z,1004.12
2018-05-26T11:53:27.573Z,1004.16
2018-05-26T11:54:27.589Z,1004.08
2018-05-26T11:55:27.604Z,1004.14
2018-05-26T11:56:27.620Z,1004.15
2018-05-26T11:57:27.637Z,1004.15
2018-05-26T11:58:27.652Z,1004.15
2018-05-26T11:59:27.672Z,1004.13
2018-05-26T12:00:27.687Z,1004.15
2018-05-26T12:01:27.704Z,1004.17
2018-05-26T12:02:27.722Z,1004.18
2018-05-26T12:03:27.737Z,1004.11
2018-05-26T12:04:27.757Z,1004.13
2018-05-26T12:05:27.772Z,1004.19
2018-05-26T12:06:27.790Z,1004.14
2018-05-26T12:07:27.805Z,1004.14
2018-05-26T12:08:27.822Z,1004.15
2018-05-26T12:09:27.841Z,1004.17